createdAt,value
2019-05-01T01:04:36.081Z,11.00
2019-05-01T01:08:45.609Z,10.50
2019-05-01T01:16:58.364Z,11.00
2019-05-01T01:25:15.628Z,10.60
2019-05-01T04:17:15.113Z,8.90
2019-05-01T06:01:44.146Z,11.00
2019-05-01T06:55:40.329Z,13.20
2019-05-01T07:04:37.813Z,13.50
2019-05-01T07:08:40.418Z,12.40
2019-05-01T07:12:48.591Z,13.10
2019-05-01T07:34:49.219Z,14.40
2019-05-01T07:43:11.262Z,14.00
2019-05-01T07:47:31.641Z,14.90
2019-05-01T08:21:33.271Z,15.90
2019-05-01T08:30:07.684Z,17.00
2019-05-01T08:52:04.703Z,17.10
2019-05-01T09:00:18.922Z,17.00
2019-05-01T09:16:52.517Z,17.70
2019-05-01T09:21:00.601Z,17.80
2019-05-01T09:25:10.727Z,17.60
2019-05-01T09:33:30.880Z,17.70
2019-05-01T09:46:09.551Z,18.00
2019-05-01T09:54:42.943Z,19.80
2019-05-01T09:58:50.494Z,18.40
2019-05-01T10:02:59.725Z,19.50
2019-05-01T10:07:07.429Z,19.00
2019-05-01T10:11:14.444Z,19.40
2019-05-01T10:15:23.586Z,19.60
2019-05-01T10:23:39.895Z,19.60
2019-05-01T10:27:56.419Z,18.90
2019-05-01T10:40:42.763Z,18.90
2019-05-01T10:44:48.160Z,19.70
2019-05-01T10:53:04.418Z,19.40
2019-05-01T10:57:12.974Z,18.60
2019-05-01T11:17:51.751Z,19.20
2019-05-01T11:21:58.687Z,19.90
2019-05-01T11:30:13.359Z,20.20
2019-05-01T11:38:43.971Z,19.60
2019-05-01T11:42:49.936Z,18.30
2019-05-01T11:51:04.412Z,19.70
2019-05-01T11:55:12.706Z,19.70
2019-05-01T11:59:18.983Z,19.70
2019-05-01T12:07:31.192Z,19.10
2019-05-01T12:11:43.321Z,19.80
2019-05-01T12:20:03.200Z,19.30
2019-05-01T12:24:10.883Z,19.10
2019-05-01T12:32:23.776Z,20.00
2019-05-01T12:36:36.500Z,19.70
2019-05-01T12:44:46.510Z,20.40
2019-05-01T12:48:52.822Z,20.40
2019-05-01T12:58:16.983Z,19.90
2019-05-01T13:10:41.998Z,19.80
2019-05-01T13:14:48.454Z,19.50
2019-05-01T13:18:54.728Z,19.40
2019-05-01T13:23:04.552Z,19.30
2019-05-01T13:27:21.702Z,19.60
2019-05-01T13:31:35.962Z,19.90
2019-05-01T13:52:09.620Z,19.20
2019-05-01T13:56:18.388Z,19.20
2019-05-01T14:00:28.027Z,19.20
2019-05-01T14:08:40.526Z,18.20
2019-05-01T14:21:44.884Z,18.40
2019-05-01T14:26:11.723Z,18.00
2019-05-01T14:30:22.871Z,18.60
2019-05-01T14:38:39.546Z,19.00
2019-05-01T14:42:45.869Z,18.00
2019-05-01T14:51:36.650Z,18.80
2019-05-01T14:55:49.733Z,18.80
2019-05-01T15:08:07.895Z,18.30
2019-05-01T15:16:39.148Z,18.30
2019-05-01T15:24:53.212Z,18.50
2019-05-01T15:28:59.936Z,18.80
2019-05-01T15:33:07.515Z,17.80
2019-05-01T15:45:50.607Z,17.70
2019-05-01T15:50:00.973Z,18.10
2019-05-01T15:54:07.247Z,18.50
2019-05-01T16:02:21.748Z,18.10
2019-05-01T16:15:18.868Z,16.60
2019-05-01T16:19:25.547Z,16.90
2019-05-01T16:23:31.568Z,17.20
2019-05-01T16:27:37.919Z,18.10
2019-05-01T16:44:29.504Z,17.30
2019-05-01T16:57:14.115Z,16.40
2019-05-01T17:10:13.936Z,16.80
2019-05-01T17:18:40.316Z,16.40
2019-05-01T17:22:50.835Z,16.30
2019-05-01T17:26:57.294Z,16.50
2019-05-01T17:35:44.431Z,15.70
2019-05-01T17:40:11.745Z,15.30
2019-05-01T17:56:53.136Z,16.10
2019-05-01T18:01:15.506Z,15.90
2019-05-01T18:05:40.593Z,15.40
2019-05-01T18:13:53.689Z,15.10
2019-05-01T18:27:14.710Z,14.90
2019-05-01T18:31:27.920Z,15.20
2019-05-01T19:13:45.451Z,14.60
2019-05-01T19:17:51.372Z,14.50
2019-05-01T19:38:51.932Z,14.70
2019-05-01T19:43:01.809Z,14.30
2019-05-01T19:47:09.699Z,14.10
2019-05-01T20:03:40.688Z,13.70
2019-05-01T20:25:25.595Z,13.70
2019-05-01T20:29:32.084Z,14.00
2019-05-01T20:41:53.153Z,13.70
2019-05-01T21:02:38.907Z,14.00
2019-05-01T21:06:45.718Z,14.10
2019-05-01T21:11:14.228Z,13.30
2019-05-01T21:15:24.805Z,14.10
2019-05-01T21:29:19.949Z,13.50
2019-05-01T21:33:30.060Z,14.30
2019-05-01T22:00:55.214Z,13.40
2019-05-01T22:09:16.485Z,13.60
2019-05-01T22:13:24.323Z,13.20
2019-05-01T22:22:16.444Z,12.90
2019-05-01T22:26:31.153Z,13.20
2019-05-01T22:43:34.451Z,12.20
2019-05-01T22:51:49.074Z,12.50
2019-05-01T23:00:44.309Z,12.50
2019-05-01T23:04:52.216Z,13.10
2019-05-01T23:21:45.872Z,12.50
2019-05-01T23:25:50.686Z,13.10
2019-05-01T23:30:00.360Z,13.40
2019-05-01T23:34:06.943Z,12.20
2019-05-01T23:38:16.217Z,12.40
2019-05-01T23:42:27.180Z,12.20
2019-05-01T23:50:42.579Z,12.00
2019-05-01T23:54:52.999Z,12.50
